sensor_id;sensor_type;location;lat;lon;timestamp;pressure;altitude;pressure_sealevel;temperature;humidity
2549;BME280;1284;53.520;10.248;2023-03-25T00:00:55;99265.97;;;12.46;85.02
2549;BME280;1284;53.520;10.248;2023-03-25T00:03:28;99268.63;;;12.49;85.37
2549;BME280;1284;53.520;10.248;2023-03-25T00:05:55;99263.31;;;12.39;85.50
2549;BME280;1284;53.520;10.248;2023-03-25T00:08:22;99254.53;;;12.31;85.74
2549;BME280;1284;53.520;10.248;2023-03-25T00:10:53;99255.34;;;12.28;86.56
2549;BME280;1284;53.520;10.248;2023-03-25T00:13:19;99254.06;;;12.40;85.42
2549;BME280;1284;53.520;10.248;2023-03-25T00:15:46;99260.47;;;12.53;84.91
2549;BME280;1284;53.520;10.248;2023-03-25T00:18:12;99257.09;;;12.45;84.94
2549;BME280;1284;53.520;10.248;2023-03-25T00:20:38;99248.75;;;12.33;85.34
2549;BME280;1284;53.520;10.248;2023-03-25T00:23:07;99255.22;;;12.39;84.89
2549;BME280;1284;53.520;10.248;2023-03-25T00:25:33;99248.84;;;12.22;85.88
2549;BME280;1284;53.520;10.248;2023-03-25T00:27:59;99249.22;;;12.24;85.37
2549;BME280;1284;53.520;10.248;2023-03-25T00:30:25;99243.34;;;12.33;85.19
2549;BME280;1284;53.520;10.248;2023-03-25T00:32:51;99240.09;;;12.48;83.95
2549;BME280;1284;53.520;10.248;2023-03-25T00:35:20;99241.41;;;12.33;84.49
2549;BME280;1284;53.520;10.248;2023-03-25T00:37:47;99244.41;;;12.39;84.31
2549;BME280;1284;53.520;10.248;2023-03-25T00:40:16;99234.16;;;12.23;85.25
2549;BME280;1284;53.520;10.248;2023-03-25T00:42:42;99226.94;;;12.13;85.84
2549;BME280;1284;53.520;10.248;2023-03-25T00:45:15;99238.97;;;12.05;86.34
2549;BME280;1284;53.520;10.248;2023-03-25T00:47:41;99231.25;;;12.07;85.52
2549;BME280;1284;53.520;10.248;2023-03-25T00:50:08;99227.81;;;12.03;85.93
2549;BME280;1284;53.520;10.248;2023-03-25T00:52:34;99218.97;;;11.99;86.33
2549;BME280;1284;53.520;10.248;2023-03-25T00:54:59;99228.59;;;12.04;85.77
2549;BME280;1284;53.520;10.248;2023-03-25T00:57:26;99231.66;;;12.02;85.75
2549;BME280;1284;53.520;10.248;2023-03-25T00:59:51;99227.41;;;12.05;85.18
2549;BME280;1284;53.520;10.248;2023-03-25T01:02:17;99220.13;;;11.98;86.61
2549;BME280;1284;53.520;10.248;2023-03-25T01:04:43;99228.22;;;12.02;86.08
2549;BME280;1284;53.520;10.248;2023-03-25T01:07:10;99224.31;;;12.06;86.58
2549;BME280;1284;53.520;10.248;2023-03-25T01:09:37;99224.78;;;11.98;87.23
2549;BME280;1284;53.520;10.248;2023-03-25T01:12:03;99221.56;;;12.13;86.48
2549;BME280;1284;53.520;10.248;2023-03-25T01:14:29;99234.00;;;12.00;86.78
2549;BME280;1284;53.520;10.248;2023-03-25T01:16:54;99235.41;;;12.15;86.49
2549;BME280;1284;53.520;10.248;2023-03-25T01:19:20;99229.66;;;12.13;86.32
2549;BME280;1284;53.520;10.248;2023-03-25T01:21:47;99230.38;;;12.17;86.30
2549;BME280;1284;53.520;10.248;2023-03-25T01:24:13;99229.84;;;12.33;86.25
2549;BME280;1284;53.520;10.248;2023-03-25T01:26:40;99231.41;;;12.30;85.68
2549;BME280;1284;53.520;10.248;2023-03-25T01:29:08;99223.97;;;12.41;85.19
2549;BME280;1284;53.520;10.248;2023-03-25T01:31:37;99218.25;;;12.36;85.85
2549;BME280;1284;53.520;10.248;2023-03-25T01:34:03;99229.81;;;12.36;85.96
2549;BME280;1284;53.520;10.248;2023-03-25T01:36:29;99220.94;;;12.36;85.60
2549;BME280;1284;53.520;10.248;2023-03-25T01:38:56;99219.56;;;12.54;84.71
2549;BME280;1284;53.520;10.248;2023-03-25T01:41:23;99221.59;;;12.47;85.40
2549;BME280;1284;53.520;10.248;2023-03-25T01:44:08;99221.91;;;12.52;85.29
2549;BME280;1284;53.520;10.248;2023-03-25T01:46:37;99214.16;;;12.58;85.04
2549;BME280;1284;53.520;10.248;2023-03-25T01:49:04;99206.25;;;12.40;85.58
2549;BME280;1284;53.520;10.248;2023-03-25T01:51:36;99215.91;;;12.38;84.84
2549;BME280;1284;53.520;10.248;2023-03-25T01:54:03;99205.56;;;12.29;85.63
2549;BME280;1284;53.520;10.248;2023-03-25T01:56:35;99197.84;;;12.31;85.67
2549;BME280;1284;53.520;10.248;2023-03-25T01:59:05;99201.28;;;12.35;85.32
2549;BME280;1284;53.520;10.248;2023-03-25T02:01:31;99197.16;;;12.24;86.19
2549;BME280;1284;53.520;10.248;2023-03-25T02:03:58;99198.84;;;12.11;86.37
2549;BME280;1284;53.520;10.248;2023-03-25T02:06:45;99197.91;;;12.24;85.65
2549;BME280;1284;53.520;10.248;2023-03-25T02:09:16;99186.69;;;12.29;85.88
2549;BME280;1284;53.520;10.248;2023-03-25T02:11:42;99189.75;;;12.31;85.54
2549;BME280;1284;53.520;10.248;2023-03-25T02:14:13;99184.34;;;12.31;85.23
2549;BME280;1284;53.520;10.248;2023-03-25T02:30:56;99167.72;;;12.36;84.56
2549;BME280;1284;53.520;10.248;2023-03-25T02:38:18;99179.06;;;12.21;84.82
2549;BME280;1284;53.520;10.248;2023-03-25T02:41:04;99174.28;;;12.35;84.69
2549;BME280;1284;53.520;10.248;2023-03-25T02:43:55;99169.31;;;12.30;84.50
2549;BME280;1284;53.520;10.248;2023-03-25T02:46:25;99174.34;;;12.28;84.18
2549;BME280;1284;53.520;10.248;2023-03-25T02:49:00;99163.59;;;12.25;84.96
2549;BME280;1284;53.520;10.248;2023-03-25T02:51:34;99161.91;;;12.38;84.42
2549;BME280;1284;53.520;10.248;2023-03-25T02:54:05;99162.50;;;12.19;84.15
2549;BME280;1284;53.520;10.248;2023-03-25T02:56:34;99167.94;;;12.15;84.68
2549;BME280;1284;53.520;10.248;2023-03-25T02:59:03;99157.47;;;12.21;84.66
2549;BME280;1284;53.520;10.248;2023-03-25T03:01:29;99162.44;;;11.85;85.92
2549;BME280;1284;53.520;10.248;2023-03-25T03:03:59;99153.41;;;12.02;86.05
2549;BME280;1284;53.520;10.248;2023-03-25T03:06:25;99146.75;;;12.14;85.38
2549;BME280;1284;53.520;10.248;2023-03-25T03:14:36;99153.03;;;12.04;85.20
2549;BME280;1284;53.520;10.248;2023-03-25T03:19:57;99145.59;;;12.15;85.18
2549;BME280;1284;53.520;10.248;2023-03-25T03:25:30;99145.50;;;12.22;84.57
2549;BME280;1284;53.520;10.248;2023-03-25T03:28:06;99145.41;;;12.32;84.36
2549;BME280;1284;53.520;10.248;2023-03-25T03:30:43;99134.34;;;12.20;83.95
2549;BME280;1284;53.520;10.248;2023-03-25T03:33:17;99143.84;;;12.31;84.07
2549;BME280;1284;53.520;10.248;2023-03-25T03:35:51;99131.50;;;12.34;83.69
2549;BME280;1284;53.520;10.248;2023-03-25T03:38:24;99142.28;;;12.34;83.82
2549;BME280;1284;53.520;10.248;2023-03-25T03:41:01;99144.25;;;12.30;84.03
2549;BME280;1284;53.520;10.248;2023-03-25T03:43:47;99147.50;;;12.14;84.45
2549;BME280;1284;53.520;10.248;2023-03-25T03:46:19;99140.19;;;12.15;84.31
2549;BME280;1284;53.520;10.248;2023-03-25T03:48:51;99142.25;;;12.00;85.00
2549;BME280;1284;53.520;10.248;2023-03-25T03:51:47;99144.50;;;12.09;85.10
2549;BME280;1284;53.520;10.248;2023-03-25T03:54:34;99144.75;;;12.21;83.54
2549;BME280;1284;53.520;10.248;2023-03-25T03:57:15;99148.47;;;12.34;83.23
2549;BME280;1284;53.520;10.248;2023-03-25T04:00:00;99147.28;;;12.35;83.62
2549;BME280;1284;53.520;10.248;2023-03-25T04:02:48;99144.56;;;12.35;83.56
2549;BME280;1284;53.520;10.248;2023-03-25T04:05:16;99137.72;;;12.27;83.34
2549;BME280;1284;53.520;10.248;2023-03-25T04:07:48;99135.63;;;12.08;83.92
2549;BME280;1284;53.520;10.248;2023-03-25T04:10:27;99140.19;;;12.15;83.47
2549;BME280;1284;53.520;10.248;2023-03-25T04:13:04;99132.00;;;12.22;83.85
2549;BME280;1284;53.520;10.248;2023-03-25T04:15:32;99142.25;;;12.04;84.28
2549;BME280;1284;53.520;10.248;2023-03-25T04:17:57;99139.53;;;12.04;84.30
2549;BME280;1284;53.520;10.248;2023-03-25T04:20:24;99136.06;;;12.03;83.95
2549;BME280;1284;53.520;10.248;2023-03-25T04:22:53;99131.78;;;12.09;84.04
2549;BME280;1284;53.520;10.248;2023-03-25T04:25:20;99132.47;;;12.17;83.30
2549;BME280;1284;53.520;10.248;2023-03-25T04:27:46;99140.50;;;12.20;83.72
2549;BME280;1284;53.520;10.248;2023-03-25T04:30:14;99135.59;;;12.12;83.95
2549;BME280;1284;53.520;10.248;2023-03-25T04:32:42;99152.22;;;12.07;84.26
2549;BME280;1284;53.520;10.248;2023-03-25T04:35:14;99149.19;;;12.01;84.60
2549;BME280;1284;53.520;10.248;2023-03-25T04:37:41;99144.25;;;11.96;84.38
2549;BME280;1284;53.520;10.248;2023-03-25T04:40:10;99146.09;;;12.03;84.80
2549;BME280;1284;53.520;10.248;2023-03-25T04:42:38;99154.16;;;12.06;84.17
2549;BME280;1284;53.520;10.248;2023-03-25T04:45:10;99148.03;;;12.02;83.98
2549;BME280;1284;53.520;10.248;2023-03-25T04:47:45;99139.75;;;11.83;84.35
2549;BME280;1284;53.520;10.248;2023-03-25T04:50:23;99144.75;;;11.84;84.86
2549;BME280;1284;53.520;10.248;2023-03-25T04:52:50;99137.97;;;12.06;84.13
2549;BME280;1284;53.520;10.248;2023-03-25T04:55:18;99154.19;;;12.03;83.84
2549;BME280;1284;53.520;10.248;2023-03-25T04:57:48;99140.75;;;11.99;84.40
2549;BME280;1284;53.520;10.248;2023-03-25T05:00:17;99148.88;;;11.96;84.13
2549;BME280;1284;53.520;10.248;2023-03-25T05:02:45;99140.78;;;11.96;84.93
2549;BME280;1284;53.520;10.248;2023-03-25T05:05:15;99145.25;;;12.09;84.17
2549;BME280;1284;53.520;10.248;2023-03-25T05:07:46;99146.09;;;12.03;85.01
2549;BME280;1284;53.520;10.248;2023-03-25T05:10:17;99138.78;;;12.03;85.86
2549;BME280;1284;53.520;10.248;2023-03-25T05:12:43;99135.63;;;12.08;85.00
2549;BME280;1284;53.520;10.248;2023-03-25T05:15:10;99137.31;;;11.95;86.52
2549;BME280;1284;53.520;10.248;2023-03-25T05:17:36;99137.31;;;11.95;86.16
2549;BME280;1284;53.520;10.248;2023-03-25T05:20:03;99134.41;;;11.75;86.99
2549;BME280;1284;53.520;10.248;2023-03-25T05:22:33;99146.59;;;11.91;86.34
2549;BME280;1284;53.520;10.248;2023-03-25T05:24:59;99138.13;;;11.92;85.98
2549;BME280;1284;53.520;10.248;2023-03-25T05:27:27;99140.28;;;12.04;85.08
2549;BME280;1284;53.520;10.248;2023-03-25T05:29:55;99147.66;;;12.00;85.22
2549;BME280;1284;53.520;10.248;2023-03-25T05:32:25;99143.34;;;12.06;85.33
2549;BME280;1284;53.520;10.248;2023-03-25T05:34:55;99141.34;;;12.14;84.67
2549;BME280;1284;53.520;10.248;2023-03-25T05:37:20;99149.78;;;11.82;84.35
2549;BME280;1284;53.520;10.248;2023-03-25T05:39:46;99145.03;;;11.93;85.50
2549;BME280;1284;53.520;10.248;2023-03-25T05:42:12;99156.53;;;12.01;84.99
2549;BME280;1284;53.520;10.248;2023-03-25T05:44:38;99152.72;;;11.95;84.61
2549;BME280;1284;53.520;10.248;2023-03-25T05:47:11;99151.22;;;11.94;85.09
2549;BME280;1284;53.520;10.248;2023-03-25T05:49:36;99154.31;;;11.89;84.73
2549;BME280;1284;53.520;10.248;2023-03-25T05:52:02;99158.97;;;11.88;84.49
2549;BME280;1284;53.520;10.248;2023-03-25T05:54:27;99167.81;;;11.89;85.17
2549;BME280;1284;53.520;10.248;2023-03-25T05:56:53;99165.78;;;12.00;84.49
2549;BME280;1284;53.520;10.248;2023-03-25T05:59:19;99175.41;;;12.01;83.99
2549;BME280;1284;53.520;10.248;2023-03-25T06:01:44;99165.91;;;11.86;85.23
2549;BME280;1284;53.520;10.248;2023-03-25T06:04:11;99168.34;;;11.73;86.32
2549;BME280;1284;53.520;10.248;2023-03-25T06:06:38;99167.06;;;11.88;85.91
2549;BME280;1284;53.520;10.248;2023-03-25T06:09:05;99164.72;;;11.90;85.92
2549;BME280;1284;53.520;10.248;2023-03-25T06:11:31;99167.75;;;11.96;85.77
2549;BME280;1284;53.520;10.248;2023-03-25T06:14:03;99168.50;;;12.00;85.79
2549;BME280;1284;53.520;10.248;2023-03-25T06:16:29;99167.94;;;12.15;84.71
2549;BME280;1284;53.520;10.248;2023-03-25T06:18:59;99168.09;;;12.01;85.57
2549;BME280;1284;53.520;10.248;2023-03-25T06:21:26;99168.53;;;11.96;86.16
2549;BME280;1284;53.520;10.248;2023-03-25T06:23:52;99164.28;;;11.95;85.81
2549;BME280;1284;53.520;10.248;2023-03-25T06:26:20;99172.75;;;11.97;86.49
2549;BME280;1284;53.520;10.248;2023-03-25T06:28:46;99173.38;;;12.12;85.48
2549;BME280;1284;53.520;10.248;2023-03-25T06:33:38;99179.31;;;11.96;87.57
2549;BME280;1284;53.520;10.248;2023-03-25T06:36:04;99176.91;;;12.05;86.64
2549;BME280;1284;53.520;10.248;2023-03-25T06:38:29;99179.16;;;12.10;87.43
2549;BME280;1284;53.520;10.248;2023-03-25T06:41:06;99176.84;;;12.12;87.06
2549;BME280;1284;53.520;10.248;2023-03-25T06:43:33;99185.66;;;12.16;87.07
2549;BME280;1284;53.520;10.248;2023-03-25T06:46:17;99184.78;;;12.26;86.86
2549;BME280;1284;53.520;10.248;2023-03-25T06:49:07;99190.19;;;12.26;86.74
2549;BME280;1284;53.520;10.248;2023-03-25T06:51:33;99187.41;;;12.33;86.47
2549;BME280;1284;53.520;10.248;2023-03-25T06:53:58;99182.41;;;12.32;87.16
2549;BME280;1284;53.520;10.248;2023-03-25T06:56:24;99185.28;;;12.51;86.56
2549;BME280;1284;53.520;10.248;2023-03-25T06:58:49;99184.16;;;12.49;86.59
2549;BME280;1284;53.520;10.248;2023-03-25T07:01:15;99182.25;;;12.46;85.61
2549;BME280;1284;53.520;10.248;2023-03-25T07:03:41;99193.91;;;12.39;85.62
2549;BME280;1284;53.520;10.248;2023-03-25T07:06:07;99195.09;;;12.38;86.32
2549;BME280;1284;53.520;10.248;2023-03-25T07:08:33;99207.03;;;12.37;86.57
2549;BME280;1284;53.520;10.248;2023-03-25T07:11:04;99200.66;;;12.54;86.42
2549;BME280;1284;53.520;10.248;2023-03-25T07:13:29;99186.16;;;12.41;87.43
2549;BME280;1284;53.520;10.248;2023-03-25T07:15:56;99190.97;;;12.27;88.79
2549;BME280;1284;53.520;10.248;2023-03-25T07:18:22;99188.59;;;12.32;88.78
2549;BME280;1284;53.520;10.248;2023-03-25T07:20:47;99178.44;;;12.43;88.80
2549;BME280;1284;53.520;10.248;2023-03-25T07:23:13;99196.56;;;12.43;89.50
2549;BME280;1284;53.520;10.248;2023-03-25T07:25:38;99196.38;;;12.27;90.38
2549;BME280;1284;53.520;10.248;2023-03-25T07:28:04;99191.47;;;12.52;89.59
2549;BME280;1284;53.520;10.248;2023-03-25T07:30:34;99201.34;;;12.62;89.69
2549;BME280;1284;53.520;10.248;2023-03-25T07:33:00;99198.41;;;12.83;89.01
2549;BME280;1284;53.520;10.248;2023-03-25T07:35:25;99193.38;;;12.85;88.66
2549;BME280;1284;53.520;10.248;2023-03-25T07:37:51;99194.22;;;12.79;88.64
2549;BME280;1284;53.520;10.248;2023-03-25T07:40:16;99190.81;;;13.05;87.70
2549;BME280;1284;53.520;10.248;2023-03-25T07:42:43;99199.63;;;13.09;86.93
2549;BME280;1284;53.520;10.248;2023-03-25T07:45:22;99205.50;;;13.04;85.83
2549;BME280;1284;53.520;10.248;2023-03-25T07:47:50;99209.38;;;12.99;85.12
2549;BME280;1284;53.520;10.248;2023-03-25T07:50:18;99203.44;;;12.81;84.98
2549;BME280;1284;53.520;10.248;2023-03-25T07:52:44;99204.50;;;12.91;84.46
2549;BME280;1284;53.520;10.248;2023-03-25T07:55:11;99212.03;;;12.73;83.39
2549;BME280;1284;53.520;10.248;2023-03-25T07:57:36;99209.78;;;12.98;82.46
2549;BME280;1284;53.520;10.248;2023-03-25T08:00:02;99205.81;;;13.09;82.40
2549;BME280;1284;53.520;10.248;2023-03-25T08:02:37;99209.13;;;13.20;82.52
2549;BME280;1284;53.520;10.248;2023-03-25T08:05:04;99196.94;;;13.35;81.97
2549;BME280;1284;53.520;10.248;2023-03-25T08:07:31;99220.63;;;13.78;81.35
2549;BME280;1284;53.520;10.248;2023-03-25T08:09:56;99212.81;;;14.06;79.99
2549;BME280;1284;53.520;10.248;2023-03-25T08:12:21;99203.81;;;14.13;79.31
2549;BME280;1284;53.520;10.248;2023-03-25T08:17:15;99223.78;;;14.81;75.69
2549;BME280;1284;53.520;10.248;2023-03-25T08:19:41;99213.22;;;14.87;75.47
2549;BME280;1284;53.520;10.248;2023-03-25T08:22:07;99216.78;;;14.84;71.79
2549;BME280;1284;53.520;10.248;2023-03-25T08:24:32;99218.44;;;14.15;74.10
2549;BME280;1284;53.520;10.248;2023-03-25T08:26:58;99221.38;;;14.24;75.47
2549;BME280;1284;53.520;10.248;2023-03-25T08:29:27;99222.63;;;13.97;78.32
2549;BME280;1284;53.520;10.248;2023-03-25T08:31:53;99219.00;;;14.07;77.95
2549;BME280;1284;53.520;10.248;2023-03-25T08:34:20;99216.91;;;14.14;77.13
2549;BME280;1284;53.520;10.248;2023-03-25T08:36:46;99209.16;;;14.16;77.07
2549;BME280;1284;53.520;10.248;2023-03-25T08:39:11;99216.09;;;14.17;76.33
2549;BME280;1284;53.520;10.248;2023-03-25T08:41:41;99225.06;;;13.91;76.02
2549;BME280;1284;53.520;10.248;2023-03-25T08:44:06;99212.22;;;13.95;76.09
2549;BME280;1284;53.520;10.248;2023-03-25T08:46:32;99215.63;;;14.22;76.24
2549;BME280;1284;53.520;10.248;2023-03-25T08:48:57;99213.38;;;14.40;75.68
2549;BME280;1284;53.520;10.248;2023-03-25T08:51:24;99207.06;;;14.47;73.38
2549;BME280;1284;53.520;10.248;2023-03-25T08:53:49;99204.97;;;14.35;74.05
2549;BME280;1284;53.520;10.248;2023-03-25T08:56:15;99199.97;;;14.53;73.36
2549;BME280;1284;53.520;10.248;2023-03-25T08:58:40;99205.50;;;14.46;74.14
2549;BME280;1284;53.520;10.248;2023-03-25T09:01:06;99196.66;;;14.45;75.11
2549;BME280;1284;53.520;10.248;2023-03-25T09:03:32;99210.75;;;14.57;73.42
2549;BME280;1284;53.520;10.248;2023-03-25T09:06:02;99209.50;;;14.41;73.27
2549;BME280;1284;53.520;10.248;2023-03-25T09:08:28;99213.72;;;14.62;71.80
2549;BME280;1284;53.520;10.248;2023-03-25T09:10:54;99210.31;;;14.38;73.47
2549;BME280;1284;53.520;10.248;2023-03-25T09:13:20;99209.50;;;14.18;74.64
2549;BME280;1284;53.520;10.248;2023-03-25T09:15:45;99214.81;;;14.02;77.35
2549;BME280;1284;53.520;10.248;2023-03-25T09:18:11;99214.50;;;13.74;79.86
2549;BME280;1284;53.520;10.248;2023-03-25T09:20:36;99209.69;;;13.35;82.75
2549;BME280;1284;53.520;10.248;2023-03-25T09:23:02;99233.03;;;12.92;86.53
2549;BME280;1284;53.520;10.248;2023-03-25T09:25:27;99238.28;;;13.06;85.94
2549;BME280;1284;53.520;10.248;2023-03-25T09:27:54;99242.53;;;12.36;86.97
2549;BME280;1284;53.520;10.248;2023-03-25T09:30:20;99230.53;;;12.40;85.94
2549;BME280;1284;53.520;10.248;2023-03-25T09:32:45;99228.22;;;12.02;87.57
2549;BME280;1284;53.520;10.248;2023-03-25T09:35:10;99228.03;;;11.78;90.75
2549;BME280;1284;53.520;10.248;2023-03-25T09:37:36;99227.47;;;11.98;90.63
2549;BME280;1284;53.520;10.248;2023-03-25T09:40:02;99226.78;;;11.87;91.35
2549;BME280;1284;53.520;10.248;2023-03-25T09:50:47;99239.84;;;11.37;94.05
2549;BME280;1284;53.520;10.248;2023-03-25T09:53:33;99237.00;;;11.58;90.12
2549;BME280;1284;53.520;10.248;2023-03-25T09:56:02;99235.44;;;11.60;90.24
2549;BME280;1284;53.520;10.248;2023-03-25T10:06:20;99237.81;;;11.55;89.91
2549;BME280;1284;53.520;10.248;2023-03-25T10:09:16;99234.66;;;11.60;89.98
2549;BME280;1284;53.520;10.248;2023-03-25T10:12:11;99229.28;;;11.67;90.12
2549;BME280;1284;53.520;10.248;2023-03-25T10:18:11;99230.38;;;11.73;90.77
2549;BME280;1284;53.520;10.248;2023-03-25T10:20:40;99237.69;;;11.76;92.16
2549;BME280;1284;53.520;10.248;2023-03-25T10:25:38;99224.53;;;12.22;91.82
2549;BME280;1284;53.520;10.248;2023-03-25T10:28:09;99220.09;;;12.42;92.92
2549;BME280;1284;53.520;10.248;2023-03-25T10:30:43;99222.75;;;12.80;92.79
2549;BME280;1284;53.520;10.248;2023-03-25T10:35:58;99222.34;;;13.15;90.35
2549;BME280;1284;53.520;10.248;2023-03-25T10:38:24;99225.50;;;13.36;90.37
2549;BME280;1284;53.520;10.248;2023-03-25T10:41:23;99236.66;;;13.65;90.04
2549;BME280;1284;53.520;10.248;2023-03-25T10:43:50;99234.81;;;14.08;89.73
2549;BME280;1284;53.520;10.248;2023-03-25T10:46:32;99234.81;;;14.31;86.38
2549;BME280;1284;53.520;10.248;2023-03-25T10:49:01;99239.38;;;14.11;85.32
2549;BME280;1284;53.520;10.248;2023-03-25T10:51:34;99236.97;;;14.17;84.51
2549;BME280;1284;53.520;10.248;2023-03-25T10:54:00;99235.28;;;14.26;83.06
2549;BME280;1284;53.520;10.248;2023-03-25T10:56:53;99227.63;;;14.21;81.78
2549;BME280;1284;53.520;10.248;2023-03-25T11:02:16;99228.69;;;14.27;81.61
2549;BME280;1284;53.520;10.248;2023-03-25T11:04:43;99225.75;;;14.18;82.02
2549;BME280;1284;53.520;10.248;2023-03-25T11:07:22;99229.19;;;14.19;81.57
2549;BME280;1284;53.520;10.248;2023-03-25T11:09:50;99237.59;;;14.05;78.06
2549;BME280;1284;53.520;10.248;2023-03-25T11:12:21;99248.81;;;14.03;78.75
2549;BME280;1284;53.520;10.248;2023-03-25T11:14:55;99243.34;;;14.07;78.39
2549;BME280;1284;53.520;10.248;2023-03-25T11:17:21;99232.28;;;13.98;77.16
2549;BME280;1284;53.520;10.248;2023-03-25T11:19:57;99241.28;;;13.91;77.73
2549;BME280;1284;53.520;10.248;2023-03-25T11:22:30;99242.34;;;13.74;77.35
2549;BME280;1284;53.520;10.248;2023-03-25T11:25:46;99245.66;;;13.58;78.92
2549;BME280;1284;53.520;10.248;2023-03-25T11:28:02;99242.69;;;13.49;79.96
2549;BME280;1284;53.520;10.248;2023-03-25T11:30:28;99246.28;;;13.13;83.86
2549;BME280;1284;53.520;10.248;2023-03-25T11:32:59;99248.28;;;13.09;84.05
2549;BME280;1284;53.520;10.248;2023-03-25T11:35:29;99255.06;;;12.90;85.33
2549;BME280;1284;53.520;10.248;2023-03-25T11:37:57;99242.56;;;12.69;86.54
2549;BME280;1284;53.520;10.248;2023-03-25T11:40:24;99242.25;;;12.60;86.73
2549;BME280;1284;53.520;10.248;2023-03-25T11:42:53;99252.34;;;12.56;87.48
2549;BME280;1284;53.520;10.248;2023-03-25T11:45:36;99262.34;;;12.59;87.83
2549;BME280;1284;53.520;10.248;2023-03-25T11:48:17;99269.81;;;12.45;87.97
2549;BME280;1284;53.520;10.248;2023-03-25T11:50:47;99258.53;;;12.16;89.33
2549;BME280;1284;53.520;10.248;2023-03-25T11:53:18;99254.31;;;12.15;89.72
2549;BME280;1284;53.520;10.248;2023-03-25T11:55:45;99266.91;;;11.81;91.66
2549;BME280;1284;53.520;10.248;2023-03-25T11:58:18;99246.66;;;12.07;90.02
2549;BME280;1284;53.520;10.248;2023-03-25T12:00:50;99245.94;;;12.03;88.92
2549;BME280;1284;53.520;10.248;2023-03-25T12:03:26;99251.31;;;12.03;89.69
2549;BME280;1284;53.520;10.248;2023-03-25T12:06:05;99250.53;;;12.06;90.42
2549;BME280;1284;53.520;10.248;2023-03-25T12:09:06;99245.22;;;12.36;89.09
2549;BME280;1284;53.520;10.248;2023-03-25T12:11:46;99240.03;;;12.55;86.86
2549;BME280;1284;53.520;10.248;2023-03-25T12:14:33;99236.94;;;12.53;87.93
2549;BME280;1284;53.520;10.248;2023-03-25T12:17:31;99228.13;;;12.49;87.51
2549;BME280;1284;53.520;10.248;2023-03-25T12:22:52;99218.88;;;12.81;86.53
2549;BME280;1284;53.520;10.248;2023-03-25T12:26:35;99214.72;;;13.03;85.94
2549;BME280;1284;53.520;10.248;2023-03-25T12:28:47;99217.03;;;13.08;85.66
2549;BME280;1284;53.520;10.248;2023-03-25T12:42:00;99198.78;;;13.88;86.28
2549;BME280;1284;53.520;10.248;2023-03-25T12:47:22;99195.94;;;13.99;86.33
2549;BME280;1284;53.520;10.248;2023-03-25T12:55:24;99194.81;;;13.96;83.48
2549;BME280;1284;53.520;10.248;2023-03-25T12:58:23;99188.69;;;13.92;82.14
2549;BME280;1284;53.520;10.248;2023-03-25T13:03:52;99194.22;;;13.85;82.99
2549;BME280;1284;53.520;10.248;2023-03-25T13:06:29;99203.16;;;13.82;83.67
2549;BME280;1284;53.520;10.248;2023-03-25T13:09:26;99194.56;;;13.64;84.09
2549;BME280;1284;53.520;10.248;2023-03-25T13:12:21;99196.28;;;13.54;86.02
2549;BME280;1284;53.520;10.248;2023-03-25T13:20:39;99195.91;;;13.52;87.61
2549;BME280;1284;53.520;10.248;2023-03-25T13:23:11;99196.38;;;13.47;87.83
2549;BME280;1284;53.520;10.248;2023-03-25T13:25:53;99199.97;;;13.41;88.01
2549;BME280;1284;53.520;10.248;2023-03-25T13:28:25;99204.19;;;13.42;87.93
2549;BME280;1284;53.520;10.248;2023-03-25T13:30:52;99195.72;;;13.40;88.08
2549;BME280;1284;53.520;10.248;2023-03-25T13:33:23;99192.09;;;13.50;88.63
2549;BME280;1284;53.520;10.248;2023-03-25T13:35:54;99195.19;;;13.48;89.71
2549;BME280;1284;53.520;10.248;2023-03-25T13:38:27;99199.06;;;13.47;90.21
2549;BME280;1284;53.520;10.248;2023-03-25T13:41:06;99196.75;;;13.73;90.14
2549;BME280;1284;53.520;10.248;2023-03-25T13:43:44;99200.50;;;13.79;90.19
2549;BME280;1284;53.520;10.248;2023-03-25T13:46:18;99178.97;;;13.95;88.65
2549;BME280;1284;53.520;10.248;2023-03-25T13:48:54;99186.34;;;13.71;88.82
2549;BME280;1284;53.520;10.248;2023-03-25T13:51:22;99191.28;;;13.76;88.97
2549;BME280;1284;53.520;10.248;2023-03-25T13:53:52;99184.47;;;13.68;89.52
2549;BME280;1284;53.520;10.248;2023-03-25T13:59:56;99181.25;;;13.50;90.13
2549;BME280;1284;53.520;10.248;2023-03-25T14:02:15;99180.56;;;13.19;92.00
2549;BME280;1284;53.520;10.248;2023-03-25T14:12:55;99185.72;;;13.37;91.46
2549;BME280;1284;53.520;10.248;2023-03-25T14:15:28;99197.31;;;13.37;91.48
2549;BME280;1284;53.520;10.248;2023-03-25T14:17:56;99191.84;;;13.41;90.48
2549;BME280;1284;53.520;10.248;2023-03-25T14:20:47;99199.09;;;12.91;93.46
2549;BME280;1284;53.520;10.248;2023-03-25T14:23:19;99194.16;;;12.82;93.95
2549;BME280;1284;53.520;10.248;2023-03-25T14:25:58;99193.44;;;12.78;94.09
2549;BME280;1284;53.520;10.248;2023-03-25T14:28:39;99191.06;;;12.84;94.01
2549;BME280;1284;53.520;10.248;2023-03-25T14:34:21;99179.16;;;12.78;93.83
2549;BME280;1284;53.520;10.248;2023-03-25T14:44:36;99191.09;;;12.50;89.88
2549;BME280;1284;53.520;10.248;2023-03-25T14:49:47;99213.19;;;12.01;89.41
2549;BME280;1284;53.520;10.248;2023-03-25T14:52:27;99217.38;;;11.54;91.76
2549;BME280;1284;53.520;10.248;2023-03-25T14:54:53;99218.50;;;11.60;91.34
2549;BME280;1284;53.520;10.248;2023-03-25T14:57:25;99221.16;;;11.63;92.34
2549;BME280;1284;53.520;10.248;2023-03-25T15:00:01;99224.22;;;11.72;90.96
2549;BME280;1284;53.520;10.248;2023-03-25T15:02:39;99221.53;;;11.72;91.07
2549;BME280;1284;53.520;10.248;2023-03-25T15:05:26;99213.09;;;11.67;91.60
2549;BME280;1284;53.520;10.248;2023-03-25T15:07:58;99201.91;;;11.61;91.58
2549;BME280;1284;53.520;10.248;2023-03-25T15:10:39;99202.97;;;11.78;91.70
2549;BME280;1284;53.520;10.248;2023-03-25T15:13:11;99200.69;;;11.73;92.06
2549;BME280;1284;53.520;10.248;2023-03-25T15:18:55;99184.41;;;11.87;93.23
2549;BME280;1284;53.520;10.248;2023-03-25T15:23:45;99191.50;;;12.11;92.70
2549;BME280;1284;53.520;10.248;2023-03-25T15:26:17;99192.38;;;12.01;92.54
2549;BME280;1284;53.520;10.248;2023-03-25T15:34:17;99196.22;;;12.00;91.95
2549;BME280;1284;53.520;10.248;2023-03-25T15:48:43;99184.16;;;12.12;93.80
2549;BME280;1284;53.520;10.248;2023-03-25T15:56:59;99159.03;;;12.18;92.59